Sylva, North Carolina
Current Conditions -  °F | °C
As of 9:55 AM on Monday 24 Nov 2014 (Local Time) from KGKT Reporting Station
Clear Clear  
Wind Chill: 70°   Ceiling: Unl
Heat Index: 70°   Visibility: 10mi
Dew Point: 45°   Wind: 15mph
Humidity: 40%   Direction: 220°SW
Pressure: 29.67"   Gusts: NA
Location:  35.37°N, 83.23°W
Report Text: KGKT 241455Z AUTO 22013KT 10SM CLR 21/07 A2967 RMK
Loading
Personal Weather Stations






























Interactive Weather Map New forecast layout! Learn more

10-Day Weather Forecast

Advertisements
Track Severe Weather on mobile